createdAt,value
2024-02-26T00:08:57.364Z,0.85
2024-02-26T00:20:57.792Z,0.47
2024-02-26T00:32:58.310Z,0.57
2024-02-26T00:44:58.745Z,0.44
2024-02-26T00:56:59.182Z,0.50
2024-02-26T01:08:59.556Z,0.55
2024-02-26T01:21:00.040Z,1.53
2024-02-26T01:33:00.757Z,2.24
2024-02-26T01:45:01.131Z,0.64
2024-02-26T01:57:01.440Z,0.62
2024-02-26T02:09:01.941Z,0.70
2024-02-26T02:21:02.364Z,0.02
2024-02-26T02:33:02.953Z,0.24
2024-02-26T02:45:03.186Z,0.37
2024-02-26T02:57:03.698Z,0.23
2024-02-26T03:09:04.132Z,0.53
2024-02-26T03:21:04.612Z,0.12
2024-02-26T03:33:05.101Z,0.74
2024-02-26T03:45:05.526Z,1.54
2024-02-26T03:57:05.934Z,2.38
2024-02-26T04:09:06.381Z,2.49
2024-02-26T04:21:08.733Z,2.50
2024-02-26T04:33:07.414Z,1.29
2024-02-26T04:45:07.733Z,2.12
2024-02-26T04:57:08.244Z,3.37
2024-02-26T05:09:08.654Z,1.36
2024-02-26T05:21:09.100Z,1.68
2024-02-26T05:33:09.585Z,2.65
2024-02-26T05:45:10.033Z,2.60
2024-02-26T05:57:10.490Z,1.55
2024-02-26T06:09:11.046Z,2.68
2024-02-26T06:21:11.322Z,2.18
2024-02-26T06:33:11.878Z,2.40
2024-02-26T06:45:12.351Z,2.15
2024-02-26T06:57:12.798Z,3.41
2024-02-26T07:09:13.162Z,4.18
2024-02-26T07:21:13.655Z,2.96
2024-02-26T07:33:14.171Z,3.88
2024-02-26T07:45:14.556Z,3.27
2024-02-26T07:57:15.004Z,3.23
2024-02-26T08:09:15.464Z,3.23
2024-02-26T08:21:15.863Z,3.43
2024-02-26T08:33:16.489Z,2.69
2024-02-26T08:45:16.783Z,4.79
2024-02-26T08:57:17.261Z,2.35
2024-02-26T09:09:17.773Z,2.61
2024-02-26T09:21:18.152Z,2.54
2024-02-26T09:33:18.627Z,1.85
2024-02-26T09:45:19.065Z,2.83
2024-02-26T09:57:19.557Z,1.99
2024-02-26T10:09:19.961Z,1.93
2024-02-26T10:21:20.449Z,1.74
2024-02-26T10:33:20.922Z,1.97
2024-02-26T10:45:21.354Z,2.07
2024-02-26T10:57:21.807Z,3.58
2024-02-26T11:09:22.239Z,1.61
2024-02-26T11:21:22.647Z,1.93
2024-02-26T11:33:23.205Z,2.08
2024-02-26T11:45:23.601Z,3.29
2024-02-26T11:57:24.065Z,2.84
2024-02-26T12:09:24.518Z,2.56
2024-02-26T12:21:24.965Z,2.70
2024-02-26T12:33:25.468Z,1.71
2024-02-26T12:45:25.890Z,2.12
2024-02-26T12:57:26.404Z,2.51
2024-02-26T13:09:26.833Z,2.10
2024-02-26T13:21:27.340Z,2.05
2024-02-26T13:33:28.051Z,2.70
2024-02-26T13:45:30.166Z,2.32
2024-02-26T13:57:28.687Z,1.57
2024-02-26T14:09:35.793Z,1.99
2024-02-26T14:21:29.500Z,1.68
2024-02-26T14:33:30.095Z,2.82
2024-02-26T14:45:30.416Z,1.94
2024-02-26T14:57:31.006Z,1.50
2024-02-26T15:09:31.314Z,2.87
2024-02-26T15:21:31.812Z,1.99
2024-02-26T15:33:32.504Z,1.34
2024-02-26T15:45:32.799Z,1.85
2024-02-26T15:57:33.199Z,1.25
2024-02-26T16:09:33.716Z,1.66
2024-02-26T16:31:37.663Z,1.99
2024-02-26T16:43:38.147Z,1.44
2024-02-26T16:55:38.522Z,1.55
2024-02-26T17:07:38.992Z,1.82
2024-02-26T17:19:39.435Z,0.97
2024-02-26T17:31:39.902Z,1.85
2024-02-26T17:43:40.326Z,1.09
2024-02-26T17:55:40.831Z,1.25
2024-02-26T18:07:41.235Z,0.98
2024-02-26T18:19:41.871Z,1.00
2024-02-26T18:31:42.139Z,1.85
2024-02-26T18:43:42.648Z,0.79
2024-02-26T18:55:43.139Z,2.21
2024-02-26T19:07:43.547Z,0.92
2024-02-26T19:19:44.033Z,1.18
2024-02-26T19:31:44.407Z,1.36
2024-02-26T19:43:44.880Z,0.42
2024-02-26T19:55:45.342Z,0.76
2024-02-26T20:07:45.744Z,1.70
2024-02-26T20:19:46.259Z,0.85
2024-02-26T20:31:49.317Z,1.49
2024-02-26T20:43:47.105Z,1.29
2024-02-26T20:55:47.566Z,1.58
2024-02-26T21:07:48.117Z,1.66
2024-02-26T21:19:48.540Z,1.10
2024-02-26T21:31:48.981Z,1.52
2024-02-26T21:43:49.382Z,1.81
2024-02-26T21:55:49.859Z,0.86
2024-02-26T22:07:50.278Z,1.35
2024-02-26T22:19:50.778Z,1.71
2024-02-26T22:31:51.224Z,0.91
2024-02-26T22:43:51.647Z,1.26
2024-02-26T22:55:52.146Z,0.89
2024-02-26T23:07:52.665Z,0.88
2024-02-26T23:19:53.101Z,1.81
2024-02-26T23:31:53.490Z,1.89
2024-02-26T23:43:53.898Z,1.10
2024-02-26T23:55:54.370Z,2.25
